Time;durP1;ratioP1;P1;durP2;ratioP2;P2;SDS_P1;SDS_P2;PMS_P1;PMS_P2;Temp;Humidity;BMP_temperature;BMP_pressure;BME280_temperature;BME280_humidity;BME280_pressure;Samples;Min_cycle;Max_cycle;Signal;HPM_P1;HPM_P2
2023/01/26 00:01:52;;;;;;;103.90;33.30;;;;;;;-1.46;100.00;101874.47;5048011;28;20467;-77
2023/01/26 00:04:19;;;;;;;100.38;34.58;;;;;;;-1.41;100.00;101874.28;5058796;23;20239;-78
2023/01/26 00:06:45;;;;;;;100.05;34.95;;;;;;;-1.49;100.00;101866.88;5043764;28;20065;-77
2023/01/26 00:09:14;;;;;;;109.35;33.95;;;;;;;-1.41;100.00;101864.88;5032814;28;20041;-79
2023/01/26 00:11:40;;;;;;;102.20;34.97;;;;;;;-1.46;100.00;101856.50;5037456;28;20045;-79
2023/01/26 00:14:07;;;;;;;103.82;36.22;;;;;;;-1.47;100.00;101864.25;5050505;28;20069;-79
2023/01/26 00:16:35;;;;;;;102.18;34.55;;;;;;;-1.48;100.00;101857.44;5039225;28;20084;-77
2023/01/26 00:19:02;;;;;;;105.80;36.40;;;;;;;-1.39;100.00;101857.13;5039674;28;20113;-79
2023/01/26 00:21:28;;;;;;;106.38;36.13;;;;;;;-1.47;100.00;101854.81;5041001;28;20045;-79
2023/01/26 00:23:55;;;;;;;115.13;37.38;;;;;;;-1.46;100.00;101845.41;5039304;28;20141;-78
2023/01/26 00:26:24;;;;;;;99.13;34.67;;;;;;;-1.42;100.00;101849.53;5036881;28;20072;-78
2023/01/26 00:28:51;;;;;;;110.57;35.08;;;;;;;-1.45;100.00;101839.38;5035852;28;20140;-77
2023/01/26 00:31:20;;;;;;;106.90;34.45;;;;;;;-1.58;100.00;101826.09;5039251;28;20045;-78
2023/01/26 00:33:48;;;;;;;106.93;34.55;;;;;;;-1.41;100.00;101823.78;5038352;28;20057;-79
2023/01/26 00:36:15;;;;;;;110.22;35.60;;;;;;;-1.40;100.00;101814.34;5044939;28;20045;-77
2023/01/26 00:38:42;;;;;;;110.80;35.83;;;;;;;-1.51;100.00;101821.59;5038740;28;20077;-79
2023/01/26 00:42:05;;;;;;;97.97;33.83;;;;;;;-1.59;100.00;101821.00;5038318;28;20133;-79
2023/01/26 00:43:55;;;;;;;101.68;33.88;;;;;;;-1.65;100.00;101824.59;5052031;28;20503;-77
2023/01/26 00:46:22;;;;;;;98.90;34.08;;;;;;;-1.71;100.00;101811.97;5047185;28;20141;-79
2023/01/26 00:48:50;;;;;;;104.88;33.78;;;;;;;-1.74;100.00;101806.94;5054076;28;20140;-78
2023/01/26 00:51:16;;;;;;;101.38;33.83;;;;;;;-1.63;100.00;101809.16;5056773;28;20045;-79
2023/01/26 00:53:43;;;;;;;103.32;33.95;;;;;;;-1.65;100.00;101810.94;5054688;28;20132;-78
2023/01/26 00:56:10;;;;;;;101.15;32.80;;;;;;;-1.57;100.00;101811.53;5054792;28;20140;-78
2023/01/26 00:58:36;;;;;;;105.82;32.65;;;;;;;-1.59;100.00;101809.00;5057008;28;20128;-78
2023/01/26 01:01:03;;;;;;;111.07;34.22;;;;;;;-1.58;100.00;101805.56;5053416;28;20084;-79
2023/01/26 01:03:30;;;;;;;107.18;35.10;;;;;;;-1.52;100.00;101799.38;5060820;28;20128;-78
2023/01/26 01:05:57;;;;;;;105.50;33.88;;;;;;;-1.57;100.00;101801.25;5057946;28;20064;-78
2023/01/26 01:08:24;;;;;;;103.60;34.55;;;;;;;-1.52;100.00;101799.38;5056045;28;20128;-78
2023/01/26 01:11:02;;;;;;;101.55;35.15;;;;;;;-1.69;100.00;101803.31;5056173;28;20439;-79
2023/01/26 01:13:28;;;;;;;97.57;35.05;;;;;;;-1.70;100.00;101791.38;5058871;28;20041;-79
2023/01/26 01:15:55;;;;;;;107.18;34.78;;;;;;;-1.67;100.00;101786.16;5051211;28;20478;-78
2023/01/26 01:18:21;;;;;;;103.45;35.00;;;;;;;-1.80;100.00;101795.13;5048698;28;20059;-79
2023/01/26 01:20:48;;;;;;;112.13;36.00;;;;;;;-1.83;100.00;101791.81;5054239;28;20136;-78
2023/01/26 01:23:16;;;;;;;111.53;36.42;;;;;;;-1.84;100.00;101787.56;5058904;28;20080;-78
2023/01/26 01:25:42;;;;;;;119.00;37.03;;;;;;;-1.69;100.00;101793.06;5051620;28;20503;-77
2023/01/26 01:28:09;;;;;;;109.10;35.25;;;;;;;-1.67;100.00;101783.59;5055394;28;20111;-77
2023/01/26 01:30:37;;;;;;;111.22;35.08;;;;;;;-1.59;100.00;101777.38;5045244;28;20084;-78
2023/01/26 01:33:04;;;;;;;106.43;35.45;;;;;;;-1.54;100.00;101783.19;5057187;28;20431;-79
2023/01/26 01:35:33;;;;;;;106.72;37.15;;;;;;;-1.67;100.00;101780.19;5054306;28;20077;-78
2023/01/26 01:37:59;;;;;;;103.93;35.15;;;;;;;-1.70;100.00;101785.41;5041103;28;20044;-79
2023/01/26 01:40:27;;;;;;;104.60;35.20;;;;;;;-1.66;100.00;101771.59;5057839;28;20471;-79
2023/01/26 01:42:54;;;;;;;103.82;36.60;;;;;;;-1.57;100.00;101775.59;5057384;28;20095;-78
2023/01/26 01:45:42;;;;;;;101.75;35.45;;;;;;;-1.56;100.00;101774.69;5043831;28;20543;-79
2023/01/26 01:48:17;;;;;;;99.28;34.80;;;;;;;-1.52;100.00;101768.59;5055163;28;20588;-79
2023/01/26 01:50:44;;;;;;;110.03;36.53;;;;;;;-1.52;100.00;101759.16;5055258;28;20076;-79
2023/01/26 01:53:17;;;;;;;104.15;35.55;;;;;;;-1.47;100.00;101764.97;5049379;28;20554;-79
2023/01/26 01:55:45;;;;;;;;;;;;;;;-1.44;100.00;101764.03;5050738;28;20049;-79
2023/01/26 01:58:13;;;;;;;101.72;32.97;;;;;;;-1.38;100.00;101767.19;5055047;28;20011;-79
2023/01/26 02:00:39;;;;;;;97.00;31.85;;;;;;;-1.35;100.00;101753.41;5051418;28;20132;-79
2023/01/26 02:03:13;;;;;;;96.38;31.90;;;;;;;-1.40;100.00;101757.88;5053259;28;20072;-79
2023/01/26 02:05:47;;;;;;;95.22;33.30;;;;;;;-1.37;100.00;101753.47;5039880;28;20041;-79
2023/01/26 02:08:16;;;;;;;103.28;33.92;;;;;;;-1.45;100.00;101746.94;5055254;28;20069;-79
2023/01/26 02:10:46;;;;;;;96.22;32.58;;;;;;;-1.39;100.00;101750.13;5052527;28;20511;-78
2023/01/26 02:13:15;;;;;;;102.25;32.58;;;;;;;-1.35;100.00;101746.56;5056692;28;20136;-77
2023/01/26 02:15:42;;;;;;;91.85;31.20;;;;;;;-1.33;100.00;101739.66;5051841;28;20059;-79
2023/01/26 02:18:10;;;;;;;84.88;31.30;;;;;;;-1.32;100.00;101740.47;5054525;28;20144;-79
2023/01/26 02:20:43;;;;;;;83.65;29.65;;;;;;;-1.34;100.00;101742.25;5056394;28;20170;-79
2023/01/26 02:23:20;;;;;;;87.53;31.55;;;;;;;-1.40;100.00;101733.03;5055156;28;20575;-79
2023/01/26 02:25:59;;;;;;;84.88;31.27;;;;;;;-1.39;100.00;101736.44;5055877;28;20045;-80
2023/01/26 02:28:27;;;;;;;79.68;29.98;;;;;;;-1.38;100.00;101728.69;5036220;28;20131;-79
2023/01/26 02:30:55;;;;;;;91.43;31.85;;;;;;;-1.31;100.00;101720.78;5049337;28;20168;-78
2023/01/26 02:33:24;;;;;;;88.93;32.00;;;;;;;-1.41;100.00;101718.53;5055503;28;20041;-78
2023/01/26 02:35:51;;;;;;;88.65;31.73;;;;;;;-1.43;100.00;101722.91;5048676;28;20128;-79
2023/01/26 02:38:20;;;;;;;84.78;30.95;;;;;;;-1.39;100.00;101724.44;5047887;28;20136;-79
2023/01/26 02:40:53;;;;;;;90.60;31.48;;;;;;;-1.39;100.00;101710.78;5048982;28;20107;-79
2023/01/26 02:43:22;;;;;;;88.03;30.48;;;;;;;-1.42;100.00;101709.16;5054642;28;20053;-78
2023/01/26 02:45:49;;;;;;;89.25;32.83;;;;;;;-1.39;100.00;101705.63;5048772;28;20049;-80
2023/01/26 02:49:45;;;;;;;82.82;30.58;;;;;;;-1.48;100.00;101711.13;5053094;28;20084;-79
2023/01/26 02:51:01;;;;;;;88.68;30.70;;;;;;;-1.45;100.00;101713.56;5053043;28;20135;-79
2023/01/26 02:53:28;;;;;;;82.18;30.60;;;;;;;-1.43;100.00;101720.34;5053561;28;20080;-79
2023/01/26 02:55:53;;;;;;;90.13;32.78;;;;;;;-1.49;100.00;101717.97;5053585;28;20095;-79
2023/01/26 02:58:21;;;;;;;88.78;28.95;;;;;;;-1.46;100.00;101711.91;5061233;28;20057;-79
2023/01/26 03:00:48;;;;;;;89.65;30.55;;;;;;;-1.41;100.00;101705.69;5055545;28;20099;-78
2023/01/26 03:03:16;;;;;;;86.13;30.60;;;;;;;-1.40;100.00;101711.66;5042852;28;20499;-78
2023/01/26 03:05:43;;;;;;;85.68;31.35;;;;;;;-1.43;100.00;101706.66;5055580;28;20048;-79
2023/01/26 03:08:09;;;;;;;87.95;30.40;;;;;;;-1.42;100.00;101701.44;5051749;28;20041;-79
2023/01/26 03:10:36;;;;;;;77.13;29.75;;;;;;;-1.45;100.00;101708.44;5047303;28;20523;-78
2023/01/26 03:13:03;;;;;;;82.72;28.90;;;;;;;-1.43;100.00;101711.78;5046211;28;20042;-79
2023/01/26 03:15:51;;;;;;;78.22;30.50;;;;;;;-1.47;100.00;101707.66;5049830;28;20088;-80
2023/01/26 03:29:20;;;;;;;82.55;28.02;;;;;;;-1.50;100.00;101700.91;5052548;28;20541;-78
2023/01/26 03:31:48;;;;;;;83.22;30.30;;;;;;;-1.49;100.00;101696.59;5050260;28;20132;-79
2023/01/26 03:34:15;;;;;;;86.10;30.27;;;;;;;-1.51;100.00;101708.66;5052829;28;20137;-77
2023/01/26 03:36:42;;;;;;;76.40;28.58;;;;;;;-1.56;100.00;101711.38;5055588;28;20155;-76
2023/01/26 03:39:09;;;;;;;84.57;29.08;;;;;;;-1.45;100.00;101711.00;5048198;28;20063;-77
2023/01/26 03:58:01;;;;;;;85.22;28.80;;;;;;;-1.42;100.00;101703.22;5044141;28;20052;-78
2023/01/26 04:00:28;;;;;;;82.28;29.42;;;;;;;-1.43;100.00;101692.09;5041823;28;20404;-78
2023/01/26 04:08:25;;;;;;;84.65;30.98;;;;;;;-1.55;100.00;101686.53;5060531;28;20084;-78
2023/01/26 04:10:53;;;;;;;82.43;30.98;;;;;;;-1.55;100.00;101686.53;5054463;28;20053;-80
2023/01/26 04:21:37;;;;;;;79.68;29.70;;;;;;;-1.50;100.00;101697.50;5045288;28;20059;-77
2023/01/26 04:24:12;;;;;;;88.75;30.73;;;;;;;-1.61;100.00;101691.88;5051827;28;20481;-77
2023/01/26 04:26:41;;;;;;;79.72;29.35;;;;;;;-1.48;100.00;101693.16;5045122;28;20045;-76
2023/01/26 04:29:09;;;;;;;78.80;28.75;;;;;;;-1.47;100.00;101685.41;5051526;28;20467;-79
2023/01/26 04:31:36;;;;;;;78.93;29.00;;;;;;;-1.48;100.00;101683.72;5048960;28;20048;-79
2023/01/26 04:34:06;;;;;;;74.72;29.85;;;;;;;-1.46;100.00;101678.53;5051410;28;20136;-78
2023/01/26 04:36:34;;;;;;;77.72;28.52;;;;;;;-1.44;100.00;101679.31;5037282;28;20109;-77
2023/01/26 04:39:00;;;;;;;69.55;27.60;;;;;;;-1.40;100.00;101683.41;5052372;28;20079;-78
2023/01/26 04:41:29;;;;;;;72.78;26.25;;;;;;;-1.46;100.00;101683.66;5049385;28;20073;-78
2023/01/26 04:43:55;;;;;;;76.05;26.73;;;;;;;-1.47;100.00;101684.56;5047961;28;20063;-78
2023/01/26 04:46:22;;;;;;;69.85;28.08;;;;;;;-1.55;100.00;101681.41;5043113;28;20083;-78
2023/01/26 04:48:49;;;;;;;74.63;28.05;;;;;;;-1.48;100.00;101691.41;5054688;28;20083;-78
2023/01/26 04:51:19;;;;;;;76.22;29.40;;;;;;;-1.64;100.00;101684.28;5046533;28;20053;-78
2023/01/26 04:53:46;;;;;;;79.88;27.80;;;;;;;-1.52;100.00;101689.00;5056652;28;20041;-78
2023/01/26 04:56:20;;;;;;;75.25;27.52;;;;;;;-1.49;100.00;101691.47;5052116;28;20152;-78
2023/01/26 04:58:47;;;;;;;68.03;27.60;;;;;;;-1.49;100.00;101694.03;5057880;28;20072;-79
2023/01/26 05:01:14;;;;;;;75.07;28.85;;;;;;;-1.51;100.00;101694.09;5044608;28;20057;-78
2023/01/26 05:03:40;;;;;;;80.70;30.27;;;;;;;-1.50;100.00;101695.78;5056017;28;20075;-78
2023/01/26 05:06:07;;;;;;;76.55;30.60;;;;;;;-1.53;100.00;101692.47;5055229;28;20090;-76
2023/01/26 05:08:36;;;;;;;75.90;27.90;;;;;;;-1.56;100.00;101684.88;5047275;28;20033;-78
2023/01/26 05:11:03;;;;;;;82.00;30.73;;;;;;;-1.61;100.00;101684.19;5054737;28;20456;-78
2023/01/26 05:13:30;;;;;;;77.30;28.45;;;;;;;-1.65;100.00;101685.19;5050641;28;20056;-77
2023/01/26 05:15:57;;;;;;;75.57;28.80;;;;;;;-1.62;100.00;101682.50;5046691;28;20114;-79
2023/01/26 05:18:23;;;;;;;80.22;29.08;;;;;;;-1.61;100.00;101686.75;5045500;28;20065;-79
2023/01/26 05:20:50;;;;;;;81.47;29.70;;;;;;;-1.57;100.00;101685.75;5050202;28;20490;-78
2023/01/26 05:23:16;;;;;;;73.90;30.02;;;;;;;-1.64;100.00;101679.16;5047252;28;20132;-79
2023/01/26 05:25:44;;;;;;;74.93;29.30;;;;;;;-1.60;100.00;101680.72;5050535;28;20495;-77
2023/01/26 05:28:11;;;;;;;72.53;27.92;;;;;;;-1.57;100.00;101683.19;5048321;28;20582;-78
2023/01/26 05:30:37;;;;;;;79.45;28.88;;;;;;;-1.53;100.00;101682.19;5050273;28;20098;-79
2023/01/26 05:33:06;;;;;;;73.32;28.48;;;;;;;-1.47;100.00;101687.97;5048991;28;20048;-79
2023/01/26 05:35:33;;;;;;;77.95;28.73;;;;;;;-1.49;100.00;101688.91;5047766;28;20132;-78
2023/01/26 05:38:00;;;;;;;73.40;27.98;;;;;;;-1.56;100.00;101684.88;5046807;28;20160;-79
2023/01/26 05:40:26;;;;;;;81.15;30.50;;;;;;;-1.62;100.00;101688.47;5047138;28;20121;-79
2023/01/26 05:42:55;;;;;;;80.22;28.92;;;;;;;-1.63;100.00;101683.41;5049700;28;20403;-79
2023/01/26 05:45:22;;;;;;;79.63;27.58;;;;;;;-1.61;100.00;101681.63;5045532;28;20072;-79
2023/01/26 05:47:48;;;;;;;68.15;28.25;;;;;;;-1.54;100.00;101689.06;5048588;28;20045;-79
2023/01/26 05:50:16;;;;;;;72.60;27.67;;;;;;;-1.49;100.00;101697.44;5047355;28;20111;-81
2023/01/26 05:52:45;;;;;;;76.05;27.45;;;;;;;-1.52;100.00;101696.72;5047640;28;20136;-78
2023/01/26 05:55:12;;;;;;;67.28;27.80;;;;;;;-1.55;100.00;101701.94;5047809;28;20136;-79
2023/01/26 05:57:39;;;;;;;81.75;29.75;;;;;;;-1.49;100.00;101706.88;5054671;28;20060;-78
2023/01/26 06:00:09;;;;;;;77.57;27.85;;;;;;;-1.54;100.00;101693.34;5051257;28;20128;-79
2023/01/26 06:02:36;;;;;;;74.15;27.65;;;;;;;-1.49;100.00;101697.44;5045437;28;20075;-78
2023/01/26 06:05:03;;;;;;;72.38;28.25;;;;;;;-1.54;100.00;101691.63;5049970;28;20112;-78
2023/01/26 06:07:29;;;;;;;70.88;28.08;;;;;;;-1.43;100.00;101706.66;5048103;28;20056;-79
2023/01/26 06:09:56;;;;;;;75.55;28.02;;;;;;;-1.45;100.00;101709.28;5048715;28;20496;-78
2023/01/26 06:12:23;;;;;;;65.35;26.52;;;;;;;-1.45;100.00;101699.00;5048978;28;20140;-79
2023/01/26 06:14:50;;;;;;;77.80;29.23;;;;;;;-1.36;100.00;101701.22;5048345;28;20131;-79
2023/01/26 06:17:18;;;;;;;65.82;26.55;;;;;;;-1.36;100.00;101719.22;5049212;28;20088;-78
2023/01/26 06:19:45;;;;;;;73.70;26.40;;;;;;;-1.39;100.00;101708.22;5052199;28;20197;-79
2023/01/26 06:22:13;;;;;;;67.57;27.92;;;;;;;-1.42;100.00;101718.59;5049127;28;20510;-78
2023/01/26 06:24:39;;;;;;;75.13;27.50;;;;;;;-1.37;100.00;101720.09;5053447;28;20371;-79
2023/01/26 06:27:08;;;;;;;68.55;26.85;;;;;;;-1.37;100.00;101720.09;5052873;28;20077;-78
2023/01/26 06:29:35;;;;;;;72.30;27.55;;;;;;;-1.27;100.00;101722.34;5053651;28;20072;-79
2023/01/26 06:32:01;;;;;;;66.18;27.17;;;;;;;-1.36;100.00;101713.22;5053042;28;20102;-78
2023/01/26 06:34:29;;;;;;;69.82;26.85;;;;;;;-1.31;100.00;101713.06;5055209;28;20084;-78
2023/01/26 06:36:56;;;;;;;72.20;27.25;;;;;;;-1.38;100.00;101710.72;5055647;28;20045;-79
2023/01/26 06:39:23;;;;;;;73.05;26.15;;;;;;;-1.34;100.00;101709.72;5052439;28;20128;-79
2023/01/26 06:41:49;;;;;;;79.63;26.90;;;;;;;-1.37;100.00;101711.56;5057591;28;20081;-78
2023/01/26 06:44:16;;;;;;;76.05;27.50;;;;;;;-1.36;100.00;101723.50;5054581;28;20104;-78
2023/01/26 06:46:42;;;;;;;76.30;25.63;;;;;;;-1.32;100.00;101719.94;5054440;28;20053;-80
2023/01/26 06:49:09;;;;;;;78.00;26.92;;;;;;;-1.40;100.00;101716.78;5048784;28;20080;-78
2023/01/26 06:51:46;;;;;;;69.05;25.77;;;;;;;-1.29;100.00;101724.13;5042538;28;20088;-80
2023/01/26 06:54:13;;;;;;;70.40;24.23;;;;;;;-1.31;100.00;101720.78;5038619;28;20104;-78
2023/01/26 06:56:40;;;;;;;60.75;24.00;;;;;;;-1.25;100.00;101721.41;5031935;28;20153;-79
2023/01/26 06:59:09;;;;;;;67.45;24.02;;;;;;;-1.25;100.00;101729.09;5029820;28;20134;-79
2023/01/26 07:01:39;;;;;;;62.75;23.65;;;;;;;-1.31;100.00;101729.31;5032434;28;20053;-80
2023/01/26 07:04:05;;;;;;;66.53;25.23;;;;;;;-1.33;100.00;101731.09;5038586;28;20117;-80
2023/01/26 07:06:32;;;;;;;67.90;24.52;;;;;;;-1.24;100.00;101735.09;5038903;28;20052;-80
2023/01/26 07:09:00;;;;;;;65.55;24.05;;;;;;;-1.29;100.00;101731.84;5038132;28;20155;-78
2023/01/26 07:11:29;;;;;;;65.60;23.85;;;;;;;-1.29;100.00;101727.53;5032467;28;20057;-80
2023/01/26 07:13:56;;;;;;;68.72;24.38;;;;;;;-1.27;100.00;101730.88;5033800;28;20232;-79
2023/01/26 07:16:22;;;;;;;63.08;24.00;;;;;;;-1.25;100.00;101729.09;5035437;28;20109;-79
2023/01/26 07:18:49;;;;;;;73.50;23.95;;;;;;;-1.28;100.00;101721.50;5034997;28;20108;-79
2023/01/26 07:21:18;;;;;;;67.57;25.40;;;;;;;-1.25;100.00;101715.44;5035679;28;20072;-79
2023/01/26 07:23:44;;;;;;;64.47;23.45;;;;;;;-1.20;100.00;101718.69;5034109;28;20427;-79
2023/01/26 07:26:13;;;;;;;60.95;24.10;;;;;;;-1.17;100.00;101728.84;5033829;28;20045;-79
2023/01/26 07:28:39;;;;;;;72.45;26.25;;;;;;;-1.12;100.00;101727.78;5034341;28;20109;-79
2023/01/26 07:31:07;;;;;;;63.03;23.83;;;;;;;-1.15;100.00;101727.06;5034613;28;20144;-79
2023/01/26 07:33:34;;;;;;;67.13;23.77;;;;;;;-1.11;100.00;101733.75;5033797;28;20080;-78
2023/01/26 07:36:01;;;;;;;67.47;23.80;;;;;;;-1.10;100.00;101736.28;5034480;28;20046;-80
2023/01/26 07:38:28;;;;;;;62.33;25.20;;;;;;;-1.04;100.00;101733.50;5036241;28;20045;-80
2023/01/26 07:40:55;;;;;;;60.72;21.70;;;;;;;-1.05;100.00;101736.97;5041150;28;20053;-80
2023/01/26 07:43:23;;;;;;;67.00;23.80;;;;;;;-1.08;100.00;101737.06;5043201;28;20050;-78
2023/01/26 07:45:52;;;;;;;67.00;22.88;;;;;;;-1.08;100.00;101739.63;5042145;28;20136;-79
2023/01/26 07:48:19;;;;;;;61.78;21.75;;;;;;;-1.01;100.00;101740.25;5042770;28;20136;-79
2023/01/26 07:50:47;;;;;;;68.45;24.83;;;;;;;-1.02;100.00;101739.41;5031436;28;20081;-79
2023/01/26 07:53:18;;;;;;;66.25;21.98;;;;;;;-1.05;100.00;101734.38;5043552;28;20049;-80
2023/01/26 07:55:45;;;;;;;66.22;23.50;;;;;;;-1.11;100.00;101739.75;5042596;28;20076;-79
2023/01/26 07:58:12;;;;;;;70.53;24.52;;;;;;;-1.11;100.00;101734.59;5043987;28;20116;-79
2023/01/26 08:00:40;;;;;;;70.28;25.08;;;;;;;-1.10;100.00;101735.44;5045735;28;20069;-80
2023/01/26 08:03:07;;;;;;;62.25;23.35;;;;;;;-0.98;100.00;101745.28;5043449;28;20136;-79
2023/01/26 08:05:37;;;;;;;70.00;22.83;;;;;;;-0.97;100.00;101730.72;5041741;28;20103;-80
2023/01/26 08:08:04;;;;;;;63.78;22.23;;;;;;;-0.90;100.00;101732.13;5042077;28;20054;-80
2023/01/26 08:10:31;;;;;;;66.68;23.58;;;;;;;-0.83;100.00;101728.44;5042285;28;20092;-79
2023/01/26 08:12:59;;;;;;;62.22;22.20;;;;;;;-0.79;100.00;101735.16;5042412;28;20141;-80
2023/01/26 08:15:25;;;;;;;64.68;22.65;;;;;;;-0.86;100.00;101737.09;5041914;28;20328;-79
2023/01/26 08:17:54;;;;;;;64.18;22.85;;;;;;;-0.86;100.00;101744.81;5041787;28;20056;-79
2023/01/26 08:20:21;;;;;;;60.17;22.95;;;;;;;-0.79;100.00;101748.00;5043035;28;20109;-79
2023/01/26 08:22:48;;;;;;;56.47;21.33;;;;;;;-0.79;100.00;101740.28;5043340;28;20478;-78
2023/01/26 08:25:14;;;;;;;57.10;20.80;;;;;;;-0.75;100.00;101752.13;5042433;28;20067;-79
2023/01/26 08:27:41;;;;;;;60.90;23.40;;;;;;;-0.71;100.00;101748.56;5042741;28;20077;-79
2023/01/26 08:30:09;;;;;;;65.95;21.15;;;;;;;-0.68;100.00;101758.72;5042110;28;20054;-79
2023/01/26 08:32:36;;;;;;;53.80;20.88;;;;;;;-0.74;100.00;101746.09;5042666;28;20053;-79
2023/01/26 08:35:05;;;;;;;61.63;22.17;;;;;;;-0.70;100.00;101740.81;5040944;28;20510;-79
2023/01/26 08:37:31;;;;;;;59.38;22.05;;;;;;;-0.61;100.00;101749.91;5041980;28;20081;-80
2023/01/26 08:39:58;;;;;;;58.03;21.02;;;;;;;-0.63;100.00;101751.69;5040944;28;20045;-79
2023/01/26 08:42:25;;;;;;;59.10;21.65;;;;;;;-0.60;100.00;101745.59;5040993;28;20128;-79
2023/01/26 08:44:52;;;;;;;64.72;22.40;;;;;;;-0.51;100.00;101752.97;5041921;28;20055;-79
2023/01/26 08:47:19;;;;;;;64.18;21.52;;;;;;;-0.50;100.00;101755.50;5042554;28;20060;-80
2023/01/26 08:49:45;;;;;;;62.17;23.92;;;;;;;-0.50;100.00;101750.34;5042345;28;20077;-81
2023/01/26 08:52:13;;;;;;;62.92;23.15;;;;;;;-0.45;100.00;101750.97;5040282;28;20547;-79
2023/01/26 08:54:40;;;;;;;64.63;22.13;;;;;;;-0.45;100.00;101753.56;5037897;28;20053;-80
2023/01/26 08:57:06;;;;;;;61.25;23.23;;;;;;;-0.41;100.00;101749.97;5037027;28;20089;-79
2023/01/26 08:59:33;;;;;;;66.25;23.15;;;;;;;-0.56;100.00;101757.44;5038126;28;20065;-80
2023/01/26 09:01:59;;;;;;;68.03;23.25;;;;;;;-0.40;100.00;101754.22;5030328;28;20117;-79
2023/01/26 09:04:27;;;;;;;72.32;25.13;;;;;;;-0.31;100.00;101759.91;5038012;28;20089;-80
2023/01/26 09:06:54;;;;;;;77.20;25.67;;;;;;;-0.30;100.00;101761.59;5033827;28;20049;-80
2023/01/26 09:09:22;;;;;;;77.95;25.42;;;;;;;-0.31;100.00;101757.34;5035515;28;20500;-80
2023/01/26 09:11:48;;;;;;;65.43;24.67;;;;;;;-0.37;100.00;101753.25;5037479;28;20452;-80
2023/01/26 09:14:15;;;;;;;75.45;26.67;;;;;;;-0.33;100.00;101762.53;5026703;28;20077;-78
2023/01/26 09:16:41;;;;;;;74.55;26.65;;;;;;;-0.41;100.00;101762.81;5035676;28;20052;-78
2023/01/26 09:19:08;;;;;;;77.97;28.05;;;;;;;-0.48;100.00;101769.13;5035299;28;20500;-78
2023/01/26 09:21:35;;;;;;;76.43;26.63;;;;;;;-0.44;100.00;101765.50;5037517;28;20136;-79
2023/01/26 09:24:01;;;;;;;81.72;27.65;;;;;;;-0.36;100.00;101766.06;5034864;28;20472;-78
2023/01/26 09:26:30;;;;;;;76.78;27.08;;;;;;;-0.34;100.00;101763.44;5032246;28;20487;-78
2023/01/26 09:28:57;;;;;;;76.63;26.70;;;;;;;-0.31;100.00;101765.06;5035571;28;20059;-78
2023/01/26 09:31:24;;;;;;;77.93;26.45;;;;;;;-0.25;100.00;101768.22;5031474;28;20091;-75
2023/01/26 09:33:51;;;;;;;70.75;25.92;;;;;;;-0.30;100.00;101759.00;5033106;28;20050;-76
2023/01/26 09:36:18;;;;;;;72.57;26.20;;;;;;;-0.34;100.00;101764.28;5028360;28;20146;-77
2023/01/26 09:38:44;;;;;;;74.85;25.58;;;;;;;-0.27;100.00;101774.31;5033668;28;20081;-77
2023/01/26 09:41:32;;;;;;;67.20;25.30;;;;;;;-0.18;100.00;101768.84;5034885;28;20515;-78
2023/01/26 09:44:05;;;;;;;70.15;24.23;;;;;;;-0.20;100.00;101779.19;5034216;28;20155;-78
2023/01/26 09:46:44;;;;;;;66.30;24.52;;;;;;;-0.22;100.00;101782.72;5032649;28;20137;-75
2023/01/26 09:49:17;;;;;;;69.15;25.45;;;;;;;-0.25;100.00;101782.81;5035055;28;20120;-79
2023/01/26 09:51:47;;;;;;;74.93;26.15;;;;;;;-0.24;100.00;101779.34;5033343;28;20056;-78
2023/01/26 09:54:23;;;;;;;75.30;25.30;;;;;;;-0.29;100.00;101758.13;5033242;28;20488;-76
2023/01/26 09:56:50;;;;;;;71.93;25.30;;;;;;;-0.17;100.00;101758.50;5031890;28;20054;-76
2023/01/26 09:59:30;;;;;;;75.07;25.98;;;;;;;-0.11;100.00;101770.28;5040036;28;20099;-79
2023/01/26 10:02:02;;;;;;;68.97;25.05;;;;;;;-0.06;100.00;101771.78;5041866;28;20045;-80
2023/01/26 10:04:35;;;;;;;71.55;25.50;;;;;;;-0.01;100.00;101767.28;5038435;28;20111;-79
2023/01/26 10:07:04;;;;;;;68.53;24.90;;;;;;;0.08;100.00;101763.47;5034792;28;20132;-78
2023/01/26 10:09:35;;;;;;;75.90;26.55;;;;;;;0.07;100.00;101764.38;5028260;28;20141;-79
2023/01/26 10:12:04;;;;;;;74.28;26.98;;;;;;;-0.01;100.00;101754.41;5028124;28;20064;-78
2023/01/26 10:14:39;;;;;;;69.07;25.17;;;;;;;0.13;100.00;101748.69;5033082;28;20045;-78
2023/01/26 10:17:12;;;;;;;80.80;27.05;;;;;;;-0.04;100.00;101758.84;5031534;28;20077;-79
2023/01/26 10:19:44;;;;;;;71.53;25.88;;;;;;;0.05;100.00;101760.19;5028429;28;20492;-79
2023/01/26 10:22:16;;;;;;;74.18;27.08;;;;;;;0.16;100.00;101753.72;5032335;28;20077;-80
2023/01/26 10:24:47;;;;;;;72.30;26.73;;;;;;;0.09;100.00;101742.00;5031282;28;20053;-79
2023/01/26 10:27:14;;;;;;;74.00;26.27;;;;;;;0.09;100.00;101744.56;5032497;28;20046;-80
2023/01/26 10:29:42;;;;;;;76.18;26.10;;;;;;;-0.01;100.00;101748.44;5031550;28;20053;-79
2023/01/26 10:32:14;;;;;;;72.80;26.90;;;;;;;0.07;100.00;101742.97;5033864;28;20104;-78
2023/01/26 10:34:41;;;;;;;76.38;27.58;;;;;;;0.00;100.00;101742.41;5030026;28;20060;-80
2023/01/26 10:37:20;;;;;;;81.00;28.17;;;;;;;0.04;100.00;101749.06;5028630;28;20069;-80
2023/01/26 10:40:00;;;;;;;77.13;26.95;;;;;;;-0.03;100.00;101738.22;5029794;28;20042;-78
2023/01/26 10:42:29;;;;;;;86.22;27.58;;;;;;;0.07;100.00;101728.34;5026752;28;20129;-78
2023/01/26 10:45:00;;;;;;;78.43;27.67;;;;;;;0.16;100.00;101733.13;5016528;28;20542;-79
2023/01/26 10:47:28;;;;;;;85.30;29.35;;;;;;;0.09;100.00;101736.00;5017922;28;20049;-79
2023/01/26 10:50:15;;;;;;;79.97;28.63;;;;;;;0.04;100.00;101723.34;5022880;28;20126;-77
2023/01/26 10:52:57;;;;;;;82.63;29.00;;;;;;;0.17;100.00;101728.81;5021362;28;20045;-79
2023/01/26 10:55:24;;;;;;;86.75;28.75;;;;;;;0.09;100.00;101718.00;5022265;28;20128;-80
2023/01/26 10:57:51;;;;;;;79.90;27.83;;;;;;;0.13;100.00;101725.53;5021089;28;20132;-79
2023/01/26 11:00:24;;;;;;;78.78;28.45;;;;;;;0.08;100.00;101724.88;5015217;28;20045;-78
2023/01/26 11:02:53;;;;;;;75.50;27.48;;;;;;;0.11;100.00;101729.91;5027549;28;20144;-78
2023/01/26 11:05:22;;;;;;;84.78;29.15;;;;;;;0.24;100.00;101730.25;5031713;28;20128;-78
2023/01/26 11:07:50;;;;;;;85.10;29.40;;;;;;;0.27;100.00;101723.25;5030446;28;20058;-78
2023/01/26 11:10:24;;;;;;;77.85;28.35;;;;;;;0.32;100.00;101717.91;5028255;28;20136;-79
2023/01/26 11:12:51;;;;;;;84.30;28.83;;;;;;;0.33;100.00;101724.72;5028852;28;20049;-78
2023/01/26 11:15:21;;;;;;;74.90;28.05;;;;;;;0.18;100.00;101715.91;5029939;28;20103;-76
2023/01/26 11:17:56;;;;;;;80.28;30.30;;;;;;;0.26;100.00;101713.84;5032535;28;20151;-78
2023/01/26 11:20:45;;;;;;;79.57;28.75;;;;;;;0.24;100.00;101715.66;5038161;28;20041;-79
2023/01/26 11:23:21;;;;;;;86.47;29.98;;;;;;;0.32;100.00;101712.75;5041020;28;20429;-78
2023/01/26 11:26:18;;;;;;;86.30;28.48;;;;;;;0.29;100.00;101708.56;5038110;28;20112;-79
2023/01/26 11:28:58;;;;;;;87.20;30.10;;;;;;;0.30;100.00;101707.66;5041878;28;20085;-78
2023/01/26 11:31:43;;;;;;;87.28;29.77;;;;;;;0.45;100.00;101713.09;5039593;28;20060;-78
2023/01/26 11:34:23;;;;;;;89.82;31.42;;;;;;;0.44;100.00;101706.25;5037409;28;20192;-77
2023/01/26 11:36:54;;;;;;;75.07;28.52;;;;;;;0.43;100.00;101707.16;5036129;28;20139;-77
2023/01/26 11:39:28;;;;;;;82.38;30.90;;;;;;;0.43;100.00;101700.28;5038000;28;20053;-79
2023/01/26 11:42:13;;;;;;;87.00;30.50;;;;;;;0.41;100.00;101708.97;5039108;28;20077;-78
2023/01/26 11:45:14;;;;;;;81.55;29.27;;;;;;;0.45;100.00;101707.94;5043155;28;20321;-80
2023/01/26 11:47:57;;;;;;;77.05;28.38;;;;;;;0.44;100.00;101712.25;5024570;28;20148;-80
2023/01/26 11:50:33;;;;;;;81.32;30.27;;;;;;;0.45;100.00;101700.22;5037194;28;20071;-79
2023/01/26 11:53:18;;;;;;;75.93;29.02;;;;;;;0.45;100.00;101713.91;5044217;28;20041;-80